createdAt,value
2022-10-28T00:05:23.771Z,59.60
2022-10-28T00:15:30.176Z,59.90
2022-10-28T00:25:36.414Z,56.90
2022-10-28T00:35:42.693Z,73.10
2022-10-28T00:45:49.071Z,58.20
2022-10-28T00:55:55.669Z,78.50
2022-10-28T01:06:02.703Z,88.50
2022-10-28T01:16:39.115Z,53.80
2022-10-28T01:27:22.727Z,53.80
2022-10-28T01:37:36.293Z,48.50
2022-10-28T01:47:48.599Z,51.60
2022-10-28T01:57:56.354Z,54.90
2022-10-28T02:08:12.729Z,54.50
2022-10-28T02:18:28.520Z,51.10
2022-10-28T02:28:49.447Z,50.20
2022-10-28T02:38:57.395Z,49.00
2022-10-28T02:49:09.498Z,52.90
2022-10-28T02:59:15.753Z,61.80
2022-10-28T03:09:22.059Z,51.40
2022-10-28T03:19:28.353Z,65.00
2022-10-28T03:29:34.626Z,48.80
2022-10-28T03:39:40.867Z,57.80
2022-10-28T03:49:47.298Z,66.90
2022-10-28T03:59:53.577Z,69.90
2022-10-28T04:09:59.830Z,44.20
2022-10-28T04:20:06.503Z,49.40
2022-10-28T04:30:14.190Z,58.70
2022-10-28T04:40:20.476Z,65.10
2022-10-28T04:50:26.764Z,52.60
2022-10-28T05:00:33.024Z,52.30
2022-10-28T05:10:39.308Z,50.70
2022-10-28T05:20:45.934Z,52.40
2022-10-28T05:30:52.195Z,52.00
2022-10-28T05:40:58.477Z,48.50
2022-10-28T05:51:04.794Z,47.00
2022-10-28T06:01:11.287Z,48.70
2022-10-28T06:11:15.143Z,49.05
2022-10-28T06:21:21.417Z,48.50
2022-10-28T06:31:27.679Z,48.50
2022-10-28T06:41:34.507Z,46.70
2022-10-28T06:51:42.321Z,47.50
2022-10-28T07:01:48.695Z,49.90
2022-10-28T07:11:55.447Z,45.80
2022-10-28T07:22:02.299Z,30.40
2022-10-28T07:32:08.554Z,35.20
2022-10-28T07:42:14.854Z,35.20
2022-10-28T07:52:21.926Z,36.90
2022-10-28T08:02:28.265Z,31.10
2022-10-28T08:12:34.554Z,28.40
2022-10-28T08:22:40.852Z,31.30
2022-10-28T08:32:47.147Z,27.20
2022-10-28T08:42:58.122Z,31.30
2022-10-28T08:53:15.313Z,30.80
2022-10-28T09:03:28.107Z,37.20
2022-10-28T09:14:12.053Z,32.00
2022-10-28T09:24:25.530Z,34.40
2022-10-28T09:34:45.510Z,32.80
2022-10-28T09:44:56.189Z,31.10
2022-10-28T09:55:08.736Z,30.40
2022-10-28T10:05:17.306Z,30.10
2022-10-28T10:15:39.464Z,28.10
2022-10-28T10:25:45.772Z,23.90
2022-10-28T10:36:00.188Z,20.60
2022-10-28T10:46:16.903Z,32.80
2022-10-28T10:56:28.030Z,14.50
2022-10-28T11:06:38.230Z,20.30
2022-10-28T11:16:50.457Z,17.60
2022-10-28T11:26:59.740Z,16.10
2022-10-28T11:37:44.214Z,16.70
2022-10-28T11:48:12.049Z,21.40
2022-10-28T11:58:45.813Z,18.10
2022-10-28T12:09:14.173Z,19.10
2022-10-28T12:19:28.919Z,20.50
2022-10-28T12:29:39.579Z,20.50
2022-10-28T12:39:51.229Z,16.90
2022-10-28T12:50:09.488Z,14.60
2022-10-28T13:00:25.418Z,14.30
2022-10-28T13:11:13.205Z,28.10
2022-10-28T13:21:40.630Z,20.30
2022-10-28T13:31:47.585Z,19.80
2022-10-28T13:42:16.002Z,17.70
2022-10-28T13:52:22.640Z,16.00
2022-10-28T14:02:36.269Z,17.20
2022-10-28T14:12:46.059Z,16.10
2022-10-28T14:22:52.387Z,17.50
2022-10-28T14:33:01.837Z,19.70
2022-10-28T14:43:31.063Z,17.40
2022-10-28T14:53:37.766Z,21.20
2022-10-28T15:03:45.570Z,20.20
2022-10-28T15:13:55.062Z,24.10
2022-10-28T15:24:08.094Z,27.40
2022-10-28T15:34:22.270Z,26.50
2022-10-28T15:44:40.919Z,23.80
2022-10-28T15:55:01.403Z,28.10
2022-10-28T16:05:33.593Z,33.40
2022-10-28T16:15:54.362Z,29.90
2022-10-28T16:26:00.615Z,35.50
2022-10-28T16:36:07.104Z,30.10
2022-10-28T16:46:14.490Z,28.40
2022-10-28T16:56:20.809Z,32.90
2022-10-28T17:06:27.101Z,35.00
2022-10-28T17:16:33.358Z,39.50
2022-10-28T17:26:39.684Z,37.40
2022-10-28T17:36:45.957Z,35.20
2022-10-28T17:46:52.700Z,32.80
2022-10-28T17:56:58.964Z,34.60
2022-10-28T18:07:05.210Z,33.10
2022-10-28T18:17:15.008Z,32.30
2022-10-28T18:27:21.287Z,36.80
2022-10-28T18:37:29.554Z,36.10
2022-10-28T18:47:36.154Z,32.60
2022-10-28T18:57:42.428Z,30.80
2022-10-28T19:07:48.752Z,32.00
2022-10-28T19:17:55.348Z,31.80
2022-10-28T19:28:01.997Z,25.10
2022-10-28T19:38:08.280Z,27.40
2022-10-28T19:48:15.164Z,33.80
2022-10-28T19:58:21.424Z,30.20
2022-10-28T20:08:27.696Z,30.50
2022-10-28T20:18:34.630Z,29.00
2022-10-28T20:28:41.227Z,32.20
2022-10-28T20:38:47.522Z,26.80
2022-10-28T20:48:57.652Z,30.10
2022-10-28T20:59:05.126Z,29.00
2022-10-28T21:09:12.900Z,30.80
2022-10-28T21:19:19.220Z,29.30
2022-10-28T21:29:25.518Z,30.80
2022-10-28T21:39:31.766Z,34.30
2022-10-28T21:49:38.024Z,35.30
2022-10-28T21:59:44.358Z,37.60
2022-10-28T22:09:50.668Z,40.20
2022-10-28T22:19:56.929Z,36.10
2022-10-28T22:30:03.205Z,34.60
2022-10-28T22:40:09.927Z,30.10
2022-10-28T22:50:16.221Z,33.40
2022-10-28T23:00:22.559Z,29.50
2022-10-28T23:10:29.227Z,30.40
2022-10-28T23:20:36.112Z,31.80
2022-10-28T23:30:42.363Z,34.80
2022-10-28T23:40:55.975Z,32.70
2022-10-28T23:51:02.247Z,33.10
